Maxatawny, Pennsylvania
Current Conditions -  °F | °C
As of 11:35 PM on Saturday 25 Oct 2014 (Local Time) from KXLL Reporting Station
Clear Clear  
Wind Chill: 55°   Ceiling: Unl
Heat Index: 55°   Visibility: 10mi
Dew Point: 45°   Wind: 5mph
Humidity: 67%   Direction: 240°WSW
Pressure: 29.61"   Gusts: NA
Location:  40.54°N, 75.69°W
Report Text: KXLL 260335Z AUTO 24004KT 10SM CLR 13/07 A2961 RMK AO2
Loading
Personal Weather Stations






























Interactive Weather Map New forecast layout! Learn more

10-Day Weather Forecast

Advertisements
Track Severe Weather on mobile